This is the latest recevied weather packets stored in our database for station/object EA3HRE-10. If no packets are shown the sender has not sent any weather packets the latest 10 day(s).
| Time | Temp. | Humidity | Pressure | Rain* | Wind** | Luminosity | Snow |
|---|---|---|---|---|---|---|---|
| 1778014741 | 22.22° C | 50% | 1012.3 hPa | - | - | - | - |
| 1778013841 | 22.22° C | 50% | 1011.9 hPa | - | - | - | - |
| 1778013350 | 22.22° C | 50% | 1012 hPa | - | - | - | - |
| 1778002147 | 23.33° C | 46% | 1010.5 hPa | - | - | - | - |
| 1778001247 | 23.33° C | 46% | 1011 hPa | - | - | - | - |
| 1778000346 | 23.89° C | 45% | 1011.2 hPa | - | - | - | - |
| 1777999446 | 23.89° C | 47% | 1011.2 hPa | - | - | - | - |
| 1777998546 | 23.89° C | 46% | 1011.2 hPa | - | - | - | - |
| 1777997646 | 23.89° C | 43% | 1011 hPa | - | - | - | - |
| 1777996746 | 24.44° C | 44% | 1010.7 hPa | - | - | - | - |
| 1777995846 | 24.44° C | 44% | 1010.7 hPa | - | - | - | - |
| 1777994946 | 25° C | 43% | 1010.8 hPa | - | - | - | - |
| 1777994045 | 25° C | 42% | 1010.8 hPa | - | - | - | - |
| 1777993145 | 25° C | 43% | 1010.8 hPa | - | - | - | - |
| 1777992257 | 25° C | 42% | 1010.5 hPa | - | - | - | - |
| 1777992245 | 25° C | 42% | 1010.5 hPa | - | - | - | - |
| 1777991357 | 25° C | 42% | 1010.5 hPa | - | - | - | - |
| 1777991345 | 25° C | 42% | 1010.5 hPa | - | - | - | - |
| 1777990445 | 24.44° C | 44% | 1010.4 hPa | - | - | - | - |
| 1777989545 | 24.44° C | 43% | 1010.6 hPa | - | - | - | - |
| 1777988645 | 24.44° C | 44% | 1010.8 hPa | - | - | - | - |
| 1777987757 | 23.89° C | 43% | 1010.9 hPa | - | - | - | - |
| 1777987745 | 23.89° C | 43% | 1010.9 hPa | - | - | - | - |
| 1777986844 | 23.89° C | 44% | 1011.1 hPa | - | - | - | - |
| 1777985944 | 23.33° C | 45% | 1011.2 hPa | - | - | - | - |
* Rain since midnight (hover to see other rain measurements)
** Current wind speed in m/s (hover to see current wind gust speed)